createdAt,value
2023-03-15T00:01:09.373Z,3.55
2023-03-15T00:03:37.490Z,3.26
2023-03-15T00:06:06.202Z,3.31
2023-03-15T00:08:34.555Z,2.95
2023-03-15T00:11:03.172Z,3.10
2023-03-15T00:13:32.283Z,2.98
2023-03-15T00:16:04.079Z,3.04
2023-03-15T00:18:33.816Z,3.07
2023-03-15T00:21:02.853Z,3.04
2023-03-15T00:23:31.558Z,3.01
2023-03-15T00:25:59.472Z,3.03
2023-03-15T00:28:27.460Z,2.87
2023-03-15T00:31:06.821Z,2.90
2023-03-15T00:33:36.697Z,3.02
2023-03-15T00:36:09.524Z,3.26
2023-03-15T00:38:40.483Z,3.34
2023-03-15T00:41:10.820Z,3.01
2023-03-15T00:43:38.796Z,3.20
2023-03-15T00:46:08.252Z,3.47
2023-03-15T00:48:37.604Z,3.14
2023-03-15T00:51:11.445Z,3.24
2023-03-15T00:53:42.206Z,2.86
2023-03-15T00:56:11.798Z,3.20
2023-03-15T00:58:40.518Z,2.97
2023-03-15T01:01:09.619Z,3.18
2023-03-15T01:03:38.910Z,3.11
2023-03-15T01:06:08.623Z,3.17
2023-03-15T01:08:36.536Z,3.15
2023-03-15T01:11:05.214Z,2.92
2023-03-15T01:13:33.049Z,2.95
2023-03-15T01:16:00.934Z,3.03
2023-03-15T01:18:28.953Z,3.10
2023-03-15T01:20:58.245Z,3.06
2023-03-15T01:23:26.207Z,3.27
2023-03-15T01:25:54.204Z,3.54
2023-03-15T01:28:21.997Z,3.19
2023-03-15T01:30:51.532Z,3.30
2023-03-15T01:33:19.726Z,3.29
2023-03-15T01:35:48.676Z,3.32
2023-03-15T01:38:18.004Z,3.17
2023-03-15T01:40:47.400Z,3.09
2023-03-15T01:43:19.159Z,3.26
2023-03-15T01:46:02.717Z,3.54
2023-03-15T01:48:39.550Z,3.33
2023-03-15T01:51:17.956Z,3.30
2023-03-15T01:53:57.184Z,3.02
2023-03-15T01:56:26.060Z,3.05
2023-03-15T01:58:57.770Z,3.07
2023-03-15T02:01:26.860Z,3.15
2023-03-15T02:04:04.156Z,3.27
2023-03-15T02:06:34.920Z,3.19
2023-03-15T02:09:14.144Z,3.05
2023-03-15T02:11:43.982Z,3.01
2023-03-15T02:14:14.331Z,2.95
2023-03-15T02:16:44.240Z,3.05
2023-03-15T02:19:33.912Z,3.26
2023-03-15T02:22:19.885Z,2.99
2023-03-15T02:25:01.256Z,3.19
2023-03-15T02:27:34.735Z,3.23
2023-03-15T02:30:05.024Z,3.10
2023-03-15T02:32:33.313Z,3.31
2023-03-15T02:35:01.278Z,3.21
2023-03-15T02:37:29.152Z,3.23
2023-03-15T02:39:57.062Z,3.40
2023-03-15T02:42:25.123Z,3.90
2023-03-15T02:44:57.293Z,3.95
2023-03-15T02:47:31.371Z,3.71
2023-03-15T02:49:59.229Z,3.73
2023-03-15T02:52:27.263Z,3.94
2023-03-15T02:54:55.164Z,4.07
2023-03-15T02:57:23.068Z,4.32
2023-03-15T02:59:51.504Z,3.69
2023-03-15T03:02:21.132Z,4.14
2023-03-15T03:04:49.448Z,3.31
2023-03-15T03:07:17.326Z,3.47
2023-03-15T03:09:45.213Z,3.20
2023-03-15T03:12:13.161Z,3.14
2023-03-15T03:14:43.341Z,3.33
2023-03-15T03:17:11.287Z,3.45
2023-03-15T03:19:40.727Z,3.17
2023-03-15T03:22:09.025Z,3.13
2023-03-15T03:24:36.926Z,3.01
2023-03-15T03:27:04.937Z,2.82
2023-03-15T03:29:33.063Z,3.07
2023-03-15T03:32:01.566Z,2.89
2023-03-15T03:34:29.429Z,2.84
2023-03-15T03:36:59.135Z,3.48
2023-03-15T03:39:27.287Z,3.36
2023-03-15T03:41:55.348Z,3.54
2023-03-15T03:44:23.268Z,3.13
2023-03-15T03:46:51.162Z,3.26
2023-03-15T03:49:19.065Z,3.12
2023-03-15T03:51:46.912Z,2.96
2023-03-15T03:54:17.663Z,2.48
2023-03-15T03:56:45.498Z,3.12
2023-03-15T03:59:13.464Z,2.81
2023-03-15T04:01:42.999Z,2.77
2023-03-15T04:04:14.220Z,3.29
2023-03-15T04:06:45.710Z,3.24
2023-03-15T04:09:17.386Z,2.83
2023-03-15T04:11:45.442Z,3.21
2023-03-15T04:14:15.455Z,3.08
2023-03-15T04:16:43.298Z,3.14
2023-03-15T04:19:12.833Z,2.88
2023-03-15T04:21:47.574Z,2.50
2023-03-15T04:24:17.026Z,2.48
2023-03-15T04:26:44.891Z,2.45
2023-03-15T04:29:14.533Z,2.51
2023-03-15T04:31:43.148Z,2.68
2023-03-15T04:34:11.218Z,2.85
2023-03-15T04:36:39.078Z,2.54
2023-03-15T04:39:07.312Z,2.88
2023-03-15T04:41:39.453Z,2.91
2023-03-15T04:44:07.570Z,3.05
2023-03-15T04:46:35.638Z,3.36
2023-03-15T04:49:05.085Z,2.89
2023-03-15T04:51:34.358Z,3.48
2023-03-15T04:54:03.339Z,3.62
2023-03-15T04:56:31.846Z,3.55
2023-03-15T04:59:01.182Z,3.93
2023-03-15T05:01:32.573Z,3.90
2023-03-15T05:04:00.905Z,3.50
2023-03-15T05:06:30.185Z,4.18
2023-03-15T05:08:58.021Z,3.20
2023-03-15T05:11:26.299Z,3.69
2023-03-15T05:13:54.557Z,3.59
2023-03-15T05:16:23.876Z,3.59
2023-03-15T05:18:51.766Z,3.29
2023-03-15T05:21:19.654Z,3.49
2023-03-15T05:23:47.582Z,3.53
2023-03-15T05:26:15.407Z,2.80
2023-03-15T05:28:45.258Z,2.66
2023-03-15T05:31:13.249Z,2.59
2023-03-15T05:33:47.142Z,2.53
2023-03-15T05:36:15.609Z,2.32
2023-03-15T05:38:45.547Z,2.80
2023-03-15T05:41:18.067Z,3.30
2023-03-15T05:43:46.239Z,3.07
2023-03-15T05:46:14.406Z,3.19
2023-03-15T05:48:44.013Z,3.25
2023-03-15T05:51:13.308Z,3.46
2023-03-15T05:53:41.324Z,3.35
2023-03-15T05:56:10.114Z,3.33
2023-03-15T05:58:38.173Z,3.43
2023-03-15T06:01:06.700Z,3.08
2023-03-15T06:03:34.650Z,2.72
2023-03-15T06:06:05.073Z,3.31
2023-03-15T06:08:36.123Z,3.62
2023-03-15T06:11:04.099Z,3.36
2023-03-15T06:13:32.075Z,2.60
2023-03-15T06:15:59.977Z,2.49
2023-03-15T06:18:27.976Z,2.42
2023-03-15T06:20:55.885Z,2.67
2023-03-15T06:23:28.168Z,2.25
2023-03-15T06:25:56.040Z,2.80
2023-03-15T06:28:23.993Z,2.87
2023-03-15T06:30:51.991Z,2.41
2023-03-15T06:33:19.926Z,3.25
2023-03-15T06:35:48.260Z,3.39
2023-03-15T06:38:16.271Z,3.25
2023-03-15T06:40:45.585Z,3.59
2023-03-15T06:43:18.353Z,3.48
2023-03-15T06:45:46.569Z,3.43
2023-03-15T06:48:14.816Z,3.61
2023-03-15T06:50:47.306Z,3.39
2023-03-15T06:53:16.056Z,3.87
2023-03-15T06:55:45.500Z,4.36
2023-03-15T06:58:15.343Z,3.51
2023-03-15T07:00:44.277Z,4.60
2023-03-15T07:03:12.221Z,4.94
2023-03-15T07:05:40.111Z,5.76
2023-03-15T07:08:08.211Z,5.44
2023-03-15T07:10:36.532Z,5.36
2023-03-15T07:13:06.970Z,6.15
2023-03-15T07:15:36.858Z,6.19
2023-03-15T07:18:05.078Z,7.22
2023-03-15T07:20:34.680Z,6.69
2023-03-15T07:23:03.468Z,7.78
2023-03-15T07:25:31.411Z,8.20
2023-03-15T07:27:59.354Z,8.33
2023-03-15T07:30:28.801Z,8.69
2023-03-15T07:32:56.896Z,8.78
2023-03-15T07:35:24.925Z,9.81
2023-03-15T07:37:52.851Z,10.41
2023-03-15T07:40:20.945Z,9.79
2023-03-15T07:42:49.040Z,10.38
2023-03-15T07:45:17.185Z,10.42
2023-03-15T07:47:46.503Z,9.64
2023-03-15T07:50:17.168Z,11.63
2023-03-15T07:52:45.284Z,11.97
2023-03-15T07:55:13.174Z,11.79
2023-03-15T07:57:41.021Z,11.97
2023-03-15T08:00:12.294Z,10.59
2023-03-15T08:02:41.008Z,11.97
2023-03-15T08:05:11.219Z,11.97
2023-03-15T08:07:39.052Z,12.59
2023-03-15T08:10:08.397Z,11.36
2023-03-15T08:12:36.477Z,12.45
2023-03-15T08:15:04.673Z,12.71
2023-03-15T08:17:32.613Z,12.71
2023-03-15T08:20:05.728Z,13.08
2023-03-15T08:22:36.479Z,13.53
2023-03-15T08:25:06.781Z,13.41
2023-03-15T08:27:34.705Z,13.80
2023-03-15T08:30:02.683Z,13.94
2023-03-15T08:32:30.863Z,13.89
2023-03-15T08:34:58.869Z,13.34
2023-03-15T08:37:26.899Z,14.49
2023-03-15T08:40:04.631Z,14.72
2023-03-15T08:42:32.505Z,15.46
2023-03-15T08:45:02.144Z,15.19
2023-03-15T08:47:30.139Z,14.48
2023-03-15T08:49:58.145Z,15.36
2023-03-15T08:52:26.052Z,14.58
2023-03-15T08:54:54.123Z,14.57
2023-03-15T08:57:25.793Z,15.28
2023-03-15T08:59:53.879Z,15.00
2023-03-15T09:02:22.504Z,15.03
2023-03-15T09:04:53.009Z,15.64
2023-03-15T09:07:21.774Z,15.44
2023-03-15T09:09:50.329Z,16.35
2023-03-15T09:12:18.889Z,16.54
2023-03-15T09:14:48.886Z,17.45
2023-03-15T09:17:16.776Z,17.41
2023-03-15T09:19:44.666Z,16.31
2023-03-15T09:22:23.453Z,16.57
2023-03-15T09:24:52.582Z,16.08
2023-03-15T09:27:20.657Z,15.62
2023-03-15T09:29:49.893Z,16.82
2023-03-15T09:32:17.828Z,16.22
2023-03-15T09:34:45.970Z,16.49
2023-03-15T09:37:14.101Z,16.46
2023-03-15T09:39:42.261Z,16.70
2023-03-15T09:42:21.857Z,16.11
2023-03-15T09:44:59.438Z,16.55
2023-03-15T09:47:43.773Z,17.09
2023-03-15T09:50:23.385Z,15.92
2023-03-15T09:52:58.862Z,16.05
2023-03-15T09:55:29.597Z,16.62
2023-03-15T09:58:01.822Z,17.40
2023-03-15T10:00:42.677Z,16.11
2023-03-15T10:03:21.943Z,15.93
2023-03-15T10:05:58.191Z,14.81
2023-03-15T10:08:26.842Z,15.50
2023-03-15T10:11:05.877Z,16.67
2023-03-15T10:13:53.102Z,15.00
2023-03-15T10:16:38.335Z,13.34
2023-03-15T10:19:23.388Z,15.33
2023-03-15T10:21:59.677Z,14.57
2023-03-15T10:24:41.485Z,14.43
2023-03-15T10:27:20.761Z,13.92
2023-03-15T10:29:51.625Z,15.23
2023-03-15T10:32:27.839Z,14.82
2023-03-15T10:34:59.424Z,15.66
2023-03-15T10:37:27.541Z,14.87
2023-03-15T10:40:00.028Z,14.58
2023-03-15T10:42:30.640Z,16.54
2023-03-15T10:45:00.086Z,17.22
2023-03-15T10:47:29.604Z,16.91
2023-03-15T10:49:59.761Z,16.31
2023-03-15T10:52:38.538Z,16.96
2023-03-15T10:55:13.363Z,16.69
2023-03-15T10:57:54.191Z,16.77
2023-03-15T11:00:31.062Z,16.69
2023-03-15T11:03:08.806Z,17.48
2023-03-15T11:05:43.622Z,17.42
2023-03-15T11:08:16.015Z,18.25
2023-03-15T11:10:46.280Z,18.80
2023-03-15T11:13:21.459Z,18.06
2023-03-15T11:16:01.486Z,16.74
2023-03-15T11:18:37.084Z,17.30
2023-03-15T11:21:11.395Z,18.40
2023-03-15T11:23:43.817Z,17.89
2023-03-15T11:26:31.540Z,17.79
2023-03-15T11:29:05.169Z,17.43
2023-03-15T11:31:34.730Z,16.97
2023-03-15T11:34:12.892Z,17.50
2023-03-15T11:36:49.064Z,17.74
2023-03-15T11:39:35.055Z,17.57
2023-03-15T11:42:11.804Z,17.58
2023-03-15T11:44:46.436Z,16.19
2023-03-15T11:47:31.817Z,17.33
2023-03-15T11:50:01.044Z,17.25
2023-03-15T11:52:31.341Z,17.82
2023-03-15T11:55:01.964Z,16.64
2023-03-15T11:57:44.656Z,15.86
2023-03-15T12:00:50.533Z,17.80
2023-03-15T12:03:39.990Z,17.69
2023-03-15T12:06:35.394Z,16.65
2023-03-15T12:09:03.260Z,15.67
2023-03-15T12:11:42.759Z,16.34
2023-03-15T12:14:31.507Z,17.39
2023-03-15T12:17:37.993Z,17.49
2023-03-15T12:20:18.364Z,17.15
2023-03-15T12:22:53.860Z,16.51
2023-03-15T12:25:32.624Z,17.34
2023-03-15T12:28:10.434Z,17.53
2023-03-15T12:30:43.662Z,16.32
2023-03-15T12:33:17.866Z,16.87
2023-03-15T12:35:47.241Z,18.21
2023-03-15T12:38:21.806Z,16.84
2023-03-15T12:40:54.816Z,16.96
2023-03-15T12:43:43.008Z,17.62
2023-03-15T12:46:58.628Z,17.67
2023-03-15T12:49:39.654Z,17.32
2023-03-15T12:52:30.099Z,17.83
2023-03-15T12:55:12.992Z,18.12
2023-03-15T12:57:50.532Z,18.34
2023-03-15T13:00:23.436Z,18.23
2023-03-15T13:02:55.858Z,17.41
2023-03-15T13:05:34.236Z,18.44
2023-03-15T13:08:22.557Z,17.21
2023-03-15T13:11:11.663Z,17.32
2023-03-15T13:14:03.486Z,17.95
2023-03-15T13:16:43.619Z,17.97
2023-03-15T13:19:23.877Z,17.52
2023-03-15T13:22:06.597Z,18.50
2023-03-15T13:24:50.392Z,18.05
2023-03-15T13:27:44.383Z,18.58
2023-03-15T13:30:34.933Z,18.56
2023-03-15T13:33:07.559Z,16.66
2023-03-15T13:35:44.497Z,16.96
2023-03-15T13:38:28.366Z,16.20
2023-03-15T13:40:58.342Z,17.00
2023-03-15T13:43:31.368Z,16.69
2023-03-15T13:46:00.811Z,16.56
2023-03-15T13:48:30.997Z,15.73
2023-03-15T13:51:06.495Z,14.75
2023-03-15T13:53:49.370Z,14.53
2023-03-15T13:56:22.552Z,15.90
2023-03-15T13:58:52.979Z,15.29
2023-03-15T14:01:23.213Z,15.65
2023-03-15T14:03:59.423Z,16.03
2023-03-15T14:06:29.904Z,16.20
2023-03-15T14:09:08.943Z,14.52
2023-03-15T14:11:40.616Z,15.39
2023-03-15T14:14:24.616Z,14.57
2023-03-15T14:17:04.908Z,13.55
2023-03-15T14:19:36.785Z,14.80
2023-03-15T14:22:15.409Z,15.66
2023-03-15T14:24:47.785Z,15.22
2023-03-15T14:27:19.619Z,14.26
2023-03-15T14:29:51.977Z,14.15
2023-03-15T14:36:51.635Z,13.20
2023-03-15T14:40:20.225Z,12.04
2023-03-15T14:43:21.544Z,12.69
2023-03-15T14:46:26.205Z,12.69
2023-03-15T14:49:11.955Z,12.71
2023-03-15T14:51:55.645Z,13.04
2023-03-15T14:54:42.792Z,12.72
2023-03-15T14:57:31.855Z,12.39
2023-03-15T15:00:18.358Z,11.75
2023-03-15T15:03:23.932Z,11.47
2023-03-15T15:06:13.898Z,12.05
2023-03-15T15:08:46.118Z,12.05
2023-03-15T15:11:14.261Z,11.75
2023-03-15T15:13:42.705Z,11.51
2023-03-15T15:16:11.146Z,11.92
2023-03-15T15:18:40.561Z,11.48
2023-03-15T15:21:19.575Z,11.74
2023-03-15T15:23:57.781Z,11.28
2023-03-15T15:26:30.181Z,11.03
2023-03-15T15:28:59.249Z,10.52
2023-03-15T15:31:34.409Z,11.04
2023-03-15T15:34:04.082Z,11.03
2023-03-15T15:36:35.769Z,11.48
2023-03-15T15:39:07.170Z,11.26
2023-03-15T15:41:35.732Z,10.97
2023-03-15T15:44:03.735Z,11.04
2023-03-15T15:46:32.203Z,11.11
2023-03-15T15:49:00.142Z,11.14
2023-03-15T15:51:33.789Z,11.17
2023-03-15T15:54:03.399Z,11.30
2023-03-15T15:56:35.788Z,11.10
2023-03-15T15:59:06.563Z,11.16
2023-03-15T16:01:34.562Z,10.75
2023-03-15T16:04:03.754Z,10.90
2023-03-15T16:06:33.600Z,11.03
2023-03-15T16:09:02.024Z,11.07
2023-03-15T16:11:31.042Z,11.12
2023-03-15T16:13:59.303Z,10.70
2023-03-15T16:16:27.862Z,10.77
2023-03-15T16:18:56.000Z,10.74
2023-03-15T16:21:34.468Z,10.73
2023-03-15T16:24:10.075Z,10.87
2023-03-15T16:26:40.620Z,10.60
2023-03-15T16:29:18.420Z,10.83
2023-03-15T16:31:46.915Z,10.57
2023-03-15T16:34:17.138Z,10.93
2023-03-15T16:36:49.706Z,10.69
2023-03-15T16:39:18.821Z,10.72
2023-03-15T16:41:46.698Z,10.82
2023-03-15T16:44:17.485Z,10.95
2023-03-15T16:46:46.261Z,10.55
2023-03-15T16:49:15.679Z,10.14
2023-03-15T16:51:48.512Z,10.56
2023-03-15T16:54:30.610Z,10.19
2023-03-15T16:57:02.483Z,10.36
2023-03-15T16:59:30.673Z,10.26
2023-03-15T17:01:58.785Z,10.18
2023-03-15T17:04:26.950Z,9.98
2023-03-15T17:06:56.495Z,9.78
2023-03-15T17:09:25.438Z,9.95
2023-03-15T17:11:53.501Z,10.18
2023-03-15T17:14:30.624Z,10.15
2023-03-15T17:16:58.514Z,10.15
2023-03-15T17:19:26.520Z,9.88
2023-03-15T17:21:56.100Z,9.90
2023-03-15T17:24:24.225Z,10.12
2023-03-15T17:26:52.506Z,9.88
2023-03-15T17:29:20.308Z,10.04
2023-03-15T17:31:49.225Z,9.50
2023-03-15T17:34:17.276Z,9.81
2023-03-15T17:36:45.417Z,9.83
2023-03-15T17:39:18.267Z,9.60
2023-03-15T17:41:49.200Z,9.58
2023-03-15T17:44:17.102Z,9.67
2023-03-15T17:46:44.983Z,9.78
2023-03-15T17:49:15.218Z,9.90
2023-03-15T17:51:43.054Z,9.52
2023-03-15T17:54:18.378Z,9.39
2023-03-15T17:56:46.505Z,9.02
2023-03-15T17:59:14.981Z,9.15
2023-03-15T18:01:45.744Z,9.09
2023-03-15T18:04:14.915Z,9.55
2023-03-15T18:06:43.187Z,9.19
2023-03-15T18:09:15.219Z,8.93
2023-03-15T18:11:46.140Z,9.10
2023-03-15T18:14:18.234Z,9.21
2023-03-15T18:16:46.357Z,9.30
2023-03-15T18:19:14.498Z,9.35
2023-03-15T18:21:42.514Z,8.67
2023-03-15T18:24:14.993Z,8.85
2023-03-15T18:26:42.876Z,9.02
2023-03-15T18:29:10.826Z,9.23
2023-03-15T18:31:38.893Z,8.98
2023-03-15T18:34:06.901Z,8.79
2023-03-15T18:36:34.819Z,8.86
2023-03-15T18:39:02.777Z,8.95
2023-03-15T18:41:32.168Z,8.93
2023-03-15T18:44:00.093Z,8.90
2023-03-15T18:46:28.036Z,9.01
2023-03-15T18:48:55.972Z,8.71
2023-03-15T18:51:28.181Z,8.63
2023-03-15T18:53:57.450Z,8.63
2023-03-15T18:56:30.708Z,8.80
2023-03-15T18:59:00.020Z,8.39
2023-03-15T19:01:29.212Z,8.50
2023-03-15T19:03:57.166Z,8.72
2023-03-15T19:06:25.504Z,8.76
2023-03-15T19:08:54.750Z,8.70
2023-03-15T19:11:24.023Z,8.75
2023-03-15T19:13:52.177Z,8.79
2023-03-15T19:16:22.108Z,8.58
2023-03-15T19:18:51.573Z,8.73
2023-03-15T19:21:20.795Z,8.69
2023-03-15T19:23:48.760Z,8.81
2023-03-15T19:26:16.666Z,8.47
2023-03-15T19:28:44.768Z,8.59
2023-03-15T19:31:12.834Z,8.65
2023-03-15T19:33:42.600Z,8.47
2023-03-15T19:36:10.689Z,8.62
2023-03-15T19:38:39.337Z,8.38
2023-03-15T19:41:12.405Z,8.52
2023-03-15T19:43:42.574Z,8.44
2023-03-15T19:46:13.531Z,8.31
2023-03-15T19:48:43.010Z,8.14
2023-03-15T19:51:11.106Z,8.50
2023-03-15T19:53:38.933Z,8.33
2023-03-15T19:56:09.536Z,8.34
2023-03-15T19:58:37.489Z,8.48
2023-03-15T20:01:05.823Z,8.58
2023-03-15T20:03:34.887Z,8.46
2023-03-15T20:06:12.402Z,8.69
2023-03-15T20:08:40.638Z,8.62
2023-03-15T20:11:09.396Z,8.58
2023-03-15T20:13:38.582Z,8.63
2023-03-15T20:16:07.748Z,8.47
2023-03-15T20:18:35.788Z,8.06
2023-03-15T20:21:04.091Z,8.04
2023-03-15T20:23:33.395Z,8.19
2023-03-15T20:26:10.807Z,8.22
2023-03-15T20:28:40.260Z,8.38
2023-03-15T20:31:09.743Z,8.07
2023-03-15T20:33:38.076Z,7.57
2023-03-15T20:36:06.924Z,7.94
2023-03-15T20:38:37.212Z,8.12
2023-03-15T20:41:07.196Z,8.05
2023-03-15T20:43:35.619Z,7.89
2023-03-15T20:46:04.902Z,7.84
2023-03-15T20:48:35.988Z,8.04
2023-03-15T20:51:05.251Z,7.82
2023-03-15T20:53:36.561Z,7.70
2023-03-15T20:56:06.630Z,7.71
2023-03-15T20:58:34.744Z,7.40
2023-03-15T21:01:05.115Z,7.44
2023-03-15T21:03:34.337Z,7.40
2023-03-15T21:06:03.634Z,7.58
2023-03-15T21:08:32.163Z,7.66
2023-03-15T21:11:01.859Z,7.54
2023-03-15T21:13:29.998Z,7.53
2023-03-15T21:15:59.026Z,7.32
2023-03-15T21:18:27.028Z,7.55
2023-03-15T21:21:03.008Z,7.75
2023-03-15T21:23:32.090Z,7.56
2023-03-15T21:26:04.278Z,7.41
2023-03-15T21:28:33.782Z,7.35
2023-03-15T21:31:01.832Z,7.34
2023-03-15T21:33:31.827Z,7.43
2023-03-15T21:36:01.135Z,7.40
2023-03-15T21:38:31.246Z,7.17
2023-03-15T21:41:01.238Z,7.22
2023-03-15T21:43:32.421Z,7.21
2023-03-15T21:46:01.288Z,7.27
2023-03-15T21:48:29.637Z,7.03
2023-03-15T21:50:57.951Z,7.11
2023-03-15T21:53:25.905Z,6.68
2023-03-15T21:55:57.081Z,6.78
2023-03-15T21:58:27.938Z,6.81
2023-03-15T22:01:01.161Z,6.96
2023-03-15T22:03:29.839Z,6.83
2023-03-15T22:05:58.308Z,7.03
2023-03-15T22:08:26.802Z,7.03
2023-03-15T22:10:55.963Z,7.01
2023-03-15T22:13:24.130Z,7.00
2023-03-15T22:15:53.519Z,6.89
2023-03-15T22:18:21.938Z,6.51
2023-03-15T22:20:51.287Z,6.56
2023-03-15T22:23:19.753Z,6.27
2023-03-15T22:25:47.740Z,6.58
2023-03-15T22:28:16.380Z,6.35
2023-03-15T22:30:47.378Z,6.56
2023-03-15T22:33:17.650Z,6.59
2023-03-15T22:35:45.786Z,6.33
2023-03-15T22:38:13.656Z,6.35
2023-03-15T22:40:43.041Z,5.99
2023-03-15T22:43:11.069Z,6.16
2023-03-15T22:45:39.019Z,6.22
2023-03-15T22:48:07.392Z,5.98
2023-03-15T22:50:36.656Z,5.61
2023-03-15T22:53:04.528Z,6.17
2023-03-15T22:55:32.411Z,6.20
2023-03-15T22:58:00.276Z,6.25
2023-03-15T23:00:28.498Z,5.86
2023-03-15T23:02:56.402Z,5.95
2023-03-15T23:05:24.669Z,6.11
2023-03-15T23:07:53.932Z,6.08
2023-03-15T23:10:22.080Z,5.82
2023-03-15T23:12:50.004Z,5.79
2023-03-15T23:15:18.383Z,6.11
2023-03-15T23:17:47.027Z,6.18
2023-03-15T23:20:17.840Z,6.06
2023-03-15T23:22:47.219Z,6.05
2023-03-15T23:25:20.533Z,5.83
2023-03-15T23:27:49.746Z,5.95
2023-03-15T23:30:18.229Z,5.63
2023-03-15T23:32:48.564Z,5.64
2023-03-15T23:35:16.538Z,5.80
2023-03-15T23:37:44.415Z,5.92
2023-03-15T23:40:15.246Z,5.86
2023-03-15T23:42:46.153Z,5.67
2023-03-15T23:45:16.328Z,5.69
2023-03-15T23:47:44.273Z,5.75
2023-03-15T23:50:13.739Z,5.63
2023-03-15T23:52:42.298Z,5.85
2023-03-15T23:55:11.581Z,5.55
2023-03-15T23:57:39.681Z,5.41
